Decoded Metar for URKA (ANAPA/VITIAZEVO in RUSSIA) (IATA:N/A) | Meteo·Mobile Aviation Weather
aviador You're here:

URKA Decoded Metar

ANAPA/VITIAZEVO in RUSSIA
Report Time2018-09-18 15:30:00
UTC Time2018-09-18 15:47:26
Flight Rules vfr VFR
Wind020° at 8 kt
W.Decomp.*RWY 04: 7.2 kt HW 3.5 kt LCW
W.Rank020° ranks 17
Current wind is below 020° avg. (9.0)
Visibility9999 m
Phenomena:N/A
Clouds:N/A
Expected CloudBase > 3,200 ft AGL from Temp-Dew spread
CeilingNone
Temp17°C (ISA +2)
Dew Point09°C (59% RH)
AAT13.9°C
QNH1022 hPa
Density Alt302 ft
Elevation174 ft
Report Wrong Elevation
Raw Report
URKA 181530Z 02004MPS CAVOK 17/09 Q1022 R04/010070 NOSIG RMK
QFE763/1017=

Extra information for URKA:More info

Metar Taf Metar & Taf Last 4 Metars F.Rules Stats Wind Profile Meteogram Temp Stats Airport Information Weather charts Add Link Nearby VenuesMetar ALERT Operation Metar Decoded Social comments